首页
METAR-TAF:

METAR-TAF

机场 :

維也納國際機場

維也納, 奥地利

纬度: 48-07N, 经度: 016-34E, 海拔: 183米

当前天气观测

该预报发布于18分钟前的19:20 UTC
风速20节,风向西转西北
温度 5°C
湿度 75%
气压 1020 hPa
能见度10公里或以上
少量云层高于2400英尺
多云层高于6000英尺

METAR: LOWW 191920Z 30020KT 9999 FEW024 BKN060 05/01 Q1020 NOSIG

时间: 20:38 (19:38 UTC)

预报

该预报发布于2小时和23分钟前的17:15 UTC
预报有效从19日的 18点(UTC)到 20日的 24点(UTC)
风速12节,风向西
能见度10公里或以上
1500米以下无云,无积雨云
短暂存在
从 19日的 18点(UTC)到 19日的 24点(UTC)
风速18节,风向西北,有时为28节阵风
能见度10公里或以上
少量云层高于3000英尺, 塔状积云.
多云层高于14000英尺
成为
从 20日的 17点(UTC)到 20日的 20点(UTC)
风速5节,风向南转南东

TAF: LOWW 191715Z 1918/2024 28012KT CAVOK TX09/2013Z TN03/2024Z TEMPO 1918/1924 31018G28KT 9999 FEW030TCU BKN140 BECMG 2017/2020 15005KT

超过4000个机场的气象观测和天气预报(METAR&TAF报告)。

可查询的气象台以黄色和红色小点在地图上表示。

将鼠标移到小点上方,可查看气象台名称。

然后点击查看天气观测和预报。

如需切换地图:点击带黑十字的绿色按钮放大地图;点击带横线的绿色按钮缩小地图;或者点击绿色箭头查看邻近地区的地图。


METAR-TAF: